Airfield :
LOGIN :

Register | Disclaimer

   EN    FR    IT 

 










Legend :    VFR   Marginal VFR   IFR   Intensive IFR   Very Intensive IFR
Visi :
Ceiling :
>= 8 km
>= 3000ft
5 to 8 km
1000 to 3000 ft
1500m to 5 km
500 to 1000 ft
800 to 1500m
200 to 500 ft
< 800m
< 200 ft
Symbols :   Thunderstorms  Fog  Heavy snow  Heavy precipitations  Wind > 20 kt
SIGMETs :     Misc.  Thunderstorms  Icing  Turbulence  Mountain Waves  Volcanic Ashes






- Airport Elevation : 1363 ft


ETIC - Grafenwohr Army Air Field

CURRENT METAR :
  • 011255Z AUTO 05003KT 9999 SCT060 OVC075 05/01 A3015 RMK AO2 SLP231 T00480011 FZRANO $

EXPIRED METARs :
  • 011055Z AUTO 06004KT 9999 OVC070 04/01 A3017 RMK AO2 SLP236 T00410006 FZRANO $

TAF TAF ETIC
Valid from the 01 at 10:00 until the 02 at 16:00 UTC


011000Z 0110/0216 08005KT 9999 BKN050 620505 QNH3018INS
BECMG 0116/0117 08005KT 9999 SCT005 BKN015 620159 QNH3018INS
BECMG 0119/0120 08005KT 6000 -RA SCT005 OVC015 620159 QNH3018INS
BECMG 0123/0124 07007KT 5000 -RASN SCT005 OVC015 620159 QNH3018INS
BECMG 0202/0203 07007KT 5000 -SN SCT005 OVC015 620159 QNH3012INS
BECMG 0211/0212 08007KT 9999 NSW SCT010 OVC050 620505 QNH3010INS
BECMG 0214/0215 08008KT 5000 -SN SCT005 OVC015 620159 QNH3007INS TX04/0112Z TN00/0209Z



MET'MAP, your aeronautical weather chart ! - Copyright ORBIFLY December 2007 - Disclaimer

ORBIFLY MET'MAP TEAM :

Programming & Development : Alexandra Zaïnal
Original concept : Baudouin d'Aumeries
Technical & hardware support : Manuel Goepfert
Assistance : Marc-Olivier Méhu




SOURCES & CREDITS :

   NOAA